createdAt,value
2023-02-01T00:01:41.639Z,2.87
2023-02-01T00:04:19.234Z,2.83
2023-02-01T00:07:14.290Z,2.79
2023-02-01T00:09:50.749Z,2.76
2023-02-01T00:12:27.940Z,2.77
2023-02-01T00:15:16.546Z,2.74
2023-02-01T00:18:07.438Z,2.73
2023-02-01T00:21:07.527Z,2.71
2023-02-01T00:24:04.555Z,2.71
2023-02-01T00:26:46.700Z,2.70
2023-02-01T00:29:27.564Z,2.69
2023-02-01T00:32:02.552Z,2.69
2023-02-01T00:34:45.927Z,2.68
2023-02-01T00:37:23.989Z,2.67
2023-02-01T00:40:00.465Z,2.65
2023-02-01T00:43:00.635Z,2.64
2023-02-01T00:45:48.448Z,2.61
2023-02-01T00:48:18.099Z,2.60
2023-02-01T00:50:54.410Z,2.59
2023-02-01T00:54:00.894Z,2.58
2023-02-01T00:56:21.615Z,2.58
2023-02-01T00:59:19.131Z,2.59
2023-02-01T01:02:00.142Z,2.60
2023-02-01T01:04:41.687Z,2.60
2023-02-01T01:07:24.971Z,2.61
2023-02-01T01:10:05.161Z,2.65
2023-02-01T01:12:55.758Z,2.65
2023-02-01T01:15:44.754Z,2.65
2023-02-01T01:18:19.039Z,2.65
2023-02-01T01:20:53.775Z,2.67
2023-02-01T01:23:41.866Z,2.69
2023-02-01T01:26:28.087Z,2.71
2023-02-01T01:29:13.073Z,2.73
2023-02-01T01:31:55.292Z,2.73
2023-02-01T01:34:32.528Z,2.72
2023-02-01T01:37:02.076Z,2.75
2023-02-01T01:39:44.079Z,2.77
2023-02-01T01:42:28.465Z,2.78
2023-02-01T01:45:36.072Z,2.78
2023-02-01T01:48:34.050Z,2.78
2023-02-01T01:51:23.518Z,2.78
2023-02-01T01:54:43.589Z,2.79
2023-02-01T01:57:31.339Z,2.79
2023-02-01T02:00:18.651Z,2.82
2023-02-01T02:02:54.468Z,2.86
2023-02-01T02:05:33.941Z,2.93
2023-02-01T02:08:11.391Z,2.99
2023-02-01T02:11:01.163Z,3.04
2023-02-01T02:13:45.381Z,3.06
2023-02-01T02:16:58.267Z,3.04
2023-02-01T02:20:24.561Z,3.02
2023-02-01T02:23:54.616Z,2.97
2023-02-01T02:27:41.252Z,2.92
2023-02-01T02:31:00.571Z,2.89
2023-02-01T02:34:34.731Z,2.88
2023-02-01T02:38:22.640Z,2.88
2023-02-01T02:41:11.956Z,2.88
2023-02-01T02:44:18.274Z,2.88
2023-02-01T02:47:29.833Z,2.88
2023-02-01T02:50:34.634Z,2.86
2023-02-01T02:53:57.483Z,2.84
2023-02-01T02:57:08.794Z,2.82
2023-02-01T03:00:28.955Z,2.79
2023-02-01T03:03:29.277Z,2.79
2023-02-01T03:06:23.856Z,2.80
2023-02-01T03:09:19.918Z,2.81
2023-02-01T03:12:24.648Z,2.82
2023-02-01T03:15:30.316Z,2.82
2023-02-01T03:18:22.112Z,2.83
2023-02-01T03:20:58.129Z,2.84
2023-02-01T03:23:40.267Z,2.85
2023-02-01T03:26:33.236Z,2.86
2023-02-01T03:29:21.186Z,2.86
2023-02-01T03:31:58.397Z,2.88
2023-02-01T03:34:33.918Z,2.91
2023-02-01T03:37:31.145Z,2.95
2023-02-01T03:40:19.745Z,3.00
2023-02-01T03:43:11.216Z,3.03
2023-02-01T03:46:00.945Z,3.07
2023-02-01T03:48:44.103Z,3.12
2023-02-01T03:51:24.717Z,3.16
2023-02-01T03:54:03.380Z,3.20
2023-02-01T03:56:47.387Z,3.23
2023-02-01T03:59:19.111Z,3.27
2023-02-01T04:01:59.857Z,3.34
2023-02-01T04:05:07.647Z,3.41
2023-02-01T04:08:01.110Z,3.46
2023-02-01T04:10:44.372Z,3.51
2023-02-01T04:13:19.877Z,3.55
2023-02-01T04:16:10.621Z,3.58
2023-02-01T04:21:45.439Z,3.60
2023-02-01T04:24:36.884Z,3.60
2023-02-01T04:27:14.031Z,3.64
2023-02-01T04:29:47.491Z,3.67
2023-02-01T04:32:23.899Z,3.70
2023-02-01T04:34:56.520Z,3.72
2023-02-01T04:37:40.533Z,3.71
2023-02-01T04:40:16.198Z,3.77
2023-02-01T04:42:54.266Z,3.87
2023-02-01T04:45:28.006Z,3.91
2023-02-01T04:48:13.506Z,3.95
2023-02-01T04:50:48.202Z,3.92
2023-02-01T04:53:23.636Z,3.89
2023-02-01T04:55:59.850Z,3.84
2023-02-01T04:59:00.262Z,3.81
2023-02-01T05:01:39.325Z,3.78
2023-02-01T05:04:27.805Z,3.77
2023-02-01T05:07:11.873Z,3.75
2023-02-01T05:10:11.593Z,3.74
2023-02-01T05:13:43.872Z,3.65
2023-02-01T05:16:45.313Z,3.63
2023-02-01T05:19:53.195Z,3.64
2023-02-01T05:22:53.579Z,3.67
2023-02-01T05:26:06.721Z,3.68
2023-02-01T05:29:51.749Z,3.67
2023-02-01T05:33:15.995Z,3.69
2023-02-01T05:36:24.135Z,3.70
2023-02-01T05:39:50.565Z,3.72
2023-02-01T05:43:05.424Z,3.75
2023-02-01T05:46:19.614Z,3.77
2023-02-01T05:49:26.403Z,3.79
2023-02-01T05:53:53.950Z,3.79
2023-02-01T05:56:53.161Z,3.76
2023-02-01T05:59:42.977Z,3.78
2023-02-01T06:02:40.950Z,3.80
2023-02-01T06:05:24.005Z,3.81
2023-02-01T06:08:58.271Z,3.83
2023-02-01T06:11:34.043Z,3.81
2023-02-01T06:14:13.059Z,3.82
2023-02-01T06:17:18.589Z,3.81
2023-02-01T06:20:02.622Z,3.78
2023-02-01T06:22:54.995Z,3.78
2023-02-01T06:25:33.731Z,3.79
2023-02-01T06:28:11.091Z,3.82
2023-02-01T06:31:02.033Z,3.83
2023-02-01T06:39:07.377Z,3.77
2023-02-01T06:42:59.138Z,3.79
2023-02-01T06:47:05.835Z,3.80
2023-02-01T07:23:14.223Z,5.72
2023-02-01T07:35:25.282Z,4.91
2023-02-01T07:40:03.234Z,4.80
2023-02-01T07:45:20.888Z,4.65
2023-02-01T08:20:57.503Z,5.34
2023-02-01T08:25:29.981Z,5.07
2023-02-01T08:28:50.138Z,4.90
2023-02-01T08:32:20.726Z,4.90
2023-02-01T08:36:07.985Z,4.90
2023-02-01T08:40:19.685Z,4.85
2023-02-01T08:43:26.428Z,4.78
2023-02-01T08:46:25.979Z,4.76
2023-02-01T08:49:37.285Z,4.84
2023-02-01T08:52:37.921Z,4.73
2023-02-01T08:56:06.481Z,4.58
2023-02-01T08:59:37.898Z,4.48
2023-02-01T09:03:05.809Z,4.47
2023-02-01T09:06:55.506Z,4.44
2023-02-01T09:09:55.908Z,4.41
2023-02-01T09:13:15.325Z,4.42
2023-02-01T09:16:39.619Z,4.42
2023-02-01T09:19:50.085Z,4.45
2023-02-01T09:22:56.821Z,4.46
2023-02-01T09:39:22.674Z,4.95
2023-02-01T09:43:44.723Z,5.28
2023-02-01T09:47:14.736Z,5.58
2023-02-01T10:17:13.741Z,8.42
2023-02-01T10:20:23.333Z,8.72
2023-02-01T10:28:12.196Z,7.76
2023-02-01T10:36:20.511Z,6.93
2023-02-01T11:11:38.518Z,7.68
2023-02-01T12:44:14.398Z,5.72
2023-02-01T13:18:56.457Z,6.45
2023-02-01T18:34:40.596Z,5.24
2023-02-01T19:12:44.101Z,5.52
2023-02-01T20:57:54.877Z,4.10
2023-02-01T21:20:51.548Z,3.63
2023-02-01T21:24:43.295Z,3.61
2023-02-01T21:28:01.942Z,3.59
2023-02-01T21:33:18.375Z,3.54
2023-02-01T21:39:02.417Z,3.45
2023-02-01T21:43:05.132Z,3.46
2023-02-01T23:05:15.623Z,5.07
2023-02-01T23:25:57.343Z,3.96
2023-02-01T23:59:00.845Z,3.82
